sensor_id;sensor_type;location;lat;lon;timestamp;temperature;humidity
5415;DHT22;2730;51.512;7.504;2022-09-06T05:02:57;20.40;99.90
5415;DHT22;2730;51.512;7.504;2022-09-06T05:05:24;20.50;99.90
5415;DHT22;2730;51.512;7.504;2022-09-06T05:07:51;20.50;99.90
5415;DHT22;2730;51.512;7.504;2022-09-06T05:10:18;20.40;99.90
5415;DHT22;2730;51.512;7.504;2022-09-06T05:12:47;20.40;99.90
5415;DHT22;2730;51.512;7.504;2022-09-06T05:15:15;20.50;99.90
5415;DHT22;2730;51.512;7.504;2022-09-06T05:17:42;20.50;99.90
5415;DHT22;2730;51.512;7.504;2022-09-06T05:20:13;20.50;99.90
5415;DHT22;2730;51.512;7.504;2022-09-06T05:22:40;20.40;99.90
5415;DHT22;2730;51.512;7.504;2022-09-06T05:25:08;20.40;99.90
5415;DHT22;2730;51.512;7.504;2022-09-06T05:27:36;20.40;99.90
5415;DHT22;2730;51.512;7.504;2022-09-06T05:30:03;20.40;99.90
5415;DHT22;2730;51.512;7.504;2022-09-06T05:32:30;20.40;99.90
5415;DHT22;2730;51.512;7.504;2022-09-06T05:34:57;20.40;99.90
5415;DHT22;2730;51.512;7.504;2022-09-06T05:37:25;20.40;99.90
5415;DHT22;2730;51.512;7.504;2022-09-06T05:39:52;20.50;99.90
5415;DHT22;2730;51.512;7.504;2022-09-06T05:42:19;20.50;99.90
5415;DHT22;2730;51.512;7.504;2022-09-06T05:44:45;20.50;99.90
5415;DHT22;2730;51.512;7.504;2022-09-06T05:47:12;20.50;99.90
5415;DHT22;2730;51.512;7.504;2022-09-06T05:49:39;20.60;99.90
5415;DHT22;2730;51.512;7.504;2022-09-06T05:52:06;20.60;99.90
5415;DHT22;2730;51.512;7.504;2022-09-06T05:54:34;20.60;99.90
5415;DHT22;2730;51.512;7.504;2022-09-06T05:57:01;20.60;99.90
5415;DHT22;2730;51.512;7.504;2022-09-06T05:59:28;20.60;99.90
5415;DHT22;2730;51.512;7.504;2022-09-06T06:01:55;20.70;99.90
5415;DHT22;2730;51.512;7.504;2022-09-06T06:04:22;20.70;99.90
5415;DHT22;2730;51.512;7.504;2022-09-06T06:06:49;20.80;99.90
5415;DHT22;2730;51.512;7.504;2022-09-06T06:09:16;20.80;99.90
5415;DHT22;2730;51.512;7.504;2022-09-06T06:11:44;20.90;99.90
5415;DHT22;2730;51.512;7.504;2022-09-06T06:14:11;20.90;99.90
5415;DHT22;2730;51.512;7.504;2022-09-06T06:16:38;21.10;99.90
5415;DHT22;2730;51.512;7.504;2022-09-06T06:19:05;21.20;99.90
5415;DHT22;2730;51.512;7.504;2022-09-06T06:21:32;21.30;99.90
5415;DHT22;2730;51.512;7.504;2022-09-06T06:24:01;21.40;99.90
5415;DHT22;2730;51.512;7.504;2022-09-06T06:26:30;21.50;99.90
5415;DHT22;2730;51.512;7.504;2022-09-06T06:28:59;21.60;99.90
5415;DHT22;2730;51.512;7.504;2022-09-06T06:31:27;21.70;99.90
5415;DHT22;2730;51.512;7.504;2022-09-06T06:33:54;21.70;99.90
5415;DHT22;2730;51.512;7.504;2022-09-06T06:36:22;21.60;99.90
5415;DHT22;2730;51.512;7.504;2022-09-06T06:38:51;21.70;99.90
5415;DHT22;2730;51.512;7.504;2022-09-06T06:41:19;21.70;99.90
5415;DHT22;2730;51.512;7.504;2022-09-06T06:43:50;21.70;99.90
5415;DHT22;2730;51.512;7.504;2022-09-06T06:46:20;21.80;99.90
5415;DHT22;2730;51.512;7.504;2022-09-06T06:48:47;21.90;99.90
5415;DHT22;2730;51.512;7.504;2022-09-06T06:51:28;22.40;99.90
5415;DHT22;2730;51.512;7.504;2022-09-06T06:53:55;23.10;99.90
5415;DHT22;2730;51.512;7.504;2022-09-06T06:56:24;23.50;99.90
5415;DHT22;2730;51.512;7.504;2022-09-06T06:58:53;23.90;99.90
5415;DHT22;2730;51.512;7.504;2022-09-06T07:01:22;24.30;99.90
5415;DHT22;2730;51.512;7.504;2022-09-06T07:03:49;24.40;99.90
5415;DHT22;2730;51.512;7.504;2022-09-06T07:06:17;24.70;99.90
5415;DHT22;2730;51.512;7.504;2022-09-06T07:08:45;25.10;99.90
5415;DHT22;2730;51.512;7.504;2022-09-06T07:11:13;26.00;99.90
5415;DHT22;2730;51.512;7.504;2022-09-06T07:13:41;26.10;99.90
5415;DHT22;2730;51.512;7.504;2022-09-06T07:16:12;26.30;99.90
5415;DHT22;2730;51.512;7.504;2022-09-06T07:18:41;27.10;99.90
5415;DHT22;2730;51.512;7.504;2022-09-06T07:21:11;28.10;99.90
5415;DHT22;2730;51.512;7.504;2022-09-06T07:23:38;29.00;99.90
5415;DHT22;2730;51.512;7.504;2022-09-06T07:26:05;29.40;98.70
5415;DHT22;2730;51.512;7.504;2022-09-06T07:28:32;29.90;98.00
5415;DHT22;2730;51.512;7.504;2022-09-06T07:30:59;30.60;96.80
5415;DHT22;2730;51.512;7.504;2022-09-06T07:33:26;30.90;96.20
5415;DHT22;2730;51.512;7.504;2022-09-06T07:35:56;31.30;95.20
5415;DHT22;2730;51.512;7.504;2022-09-06T07:38:23;31.50;94.70
5415;DHT22;2730;51.512;7.504;2022-09-06T07:40:54;31.80;93.30
5415;DHT22;2730;51.512;7.504;2022-09-06T07:43:21;32.30;92.60
5415;DHT22;2730;51.512;7.504;2022-09-06T07:45:48;32.40;92.30
5415;DHT22;2730;51.512;7.504;2022-09-06T07:48:22;32.70;91.60
5415;DHT22;2730;51.512;7.504;2022-09-06T07:50:49;33.30;90.90
5415;DHT22;2730;51.512;7.504;2022-09-06T07:53:17;33.90;90.60
5415;DHT22;2730;51.512;7.504;2022-09-06T07:55:44;34.50;88.70
5415;DHT22;2730;51.512;7.504;2022-09-06T07:58:11;34.80;87.30
5415;DHT22;2730;51.512;7.504;2022-09-06T08:00:37;35.10;86.20
5415;DHT22;2730;51.512;7.504;2022-09-06T08:03:05;34.80;85.50
5415;DHT22;2730;51.512;7.504;2022-09-06T08:05:32;34.80;83.80
5415;DHT22;2730;51.512;7.504;2022-09-06T08:07:59;35.00;81.90
5415;DHT22;2730;51.512;7.504;2022-09-06T08:10:27;35.00;80.80
5415;DHT22;2730;51.512;7.504;2022-09-06T08:12:53;35.10;80.30
5415;DHT22;2730;51.512;7.504;2022-09-06T08:15:21;35.20;78.50
5415;DHT22;2730;51.512;7.504;2022-09-06T08:17:48;34.90;79.10
5415;DHT22;2730;51.512;7.504;2022-09-06T08:20:15;34.40;79.20
5415;DHT22;2730;51.512;7.504;2022-09-06T08:22:42;34.70;77.60
5415;DHT22;2730;51.512;7.504;2022-09-06T08:25:09;35.00;76.20
5415;DHT22;2730;51.512;7.504;2022-09-06T08:27:37;35.10;76.20
5415;DHT22;2730;51.512;7.504;2022-09-06T08:30:05;34.80;76.80
5415;DHT22;2730;51.512;7.504;2022-09-06T08:32:32;35.40;74.60
5415;DHT22;2730;51.512;7.504;2022-09-06T08:35:00;35.10;74.80
5415;DHT22;2730;51.512;7.504;2022-09-06T08:37:27;35.40;74.90
5415;DHT22;2730;51.512;7.504;2022-09-06T08:39:54;35.40;73.60
5415;DHT22;2730;51.512;7.504;2022-09-06T08:42:21;35.50;72.60
5415;DHT22;2730;51.512;7.504;2022-09-06T08:44:51;35.70;73.10
5415;DHT22;2730;51.512;7.504;2022-09-06T08:47:20;35.80;72.30
5415;DHT22;2730;51.512;7.504;2022-09-06T08:49:48;36.20;71.30
5415;DHT22;2730;51.512;7.504;2022-09-06T08:52:44;36.60;68.90
5415;DHT22;2730;51.512;7.504;2022-09-06T08:55:24;36.60;69.60
5415;DHT22;2730;51.512;7.504;2022-09-06T08:58:09;36.20;68.50
5415;DHT22;2730;51.512;7.504;2022-09-06T09:00:40;36.50;69.50
5415;DHT22;2730;51.512;7.504;2022-09-06T09:03:17;36.40;67.30
5415;DHT22;2730;51.512;7.504;2022-09-06T09:05:48;36.30;68.20
5415;DHT22;2730;51.512;7.504;2022-09-06T09:08:22;36.20;68.70
5415;DHT22;2730;51.512;7.504;2022-09-06T09:10:53;36.60;67.00
5415;DHT22;2730;51.512;7.504;2022-09-06T09:13:26;36.80;66.70
5415;DHT22;2730;51.512;7.504;2022-09-06T09:15:57;37.00;65.70
5415;DHT22;2730;51.512;7.504;2022-09-06T09:18:26;36.90;64.70
5415;DHT22;2730;51.512;7.504;2022-09-06T09:20:55;37.00;65.00
5415;DHT22;2730;51.512;7.504;2022-09-06T09:23:22;37.00;65.00
5415;DHT22;2730;51.512;7.504;2022-09-06T09:25:51;36.30;65.50
5415;DHT22;2730;51.512;7.504;2022-09-06T09:28:22;36.00;63.30
5415;DHT22;2730;51.512;7.504;2022-09-06T09:30:51;36.00;63.90
5415;DHT22;2730;51.512;7.504;2022-09-06T09:33:27;36.00;63.60
5415;DHT22;2730;51.512;7.504;2022-09-06T09:35:55;35.60;63.50
5415;DHT22;2730;51.512;7.504;2022-09-06T09:38:25;35.50;64.40
5415;DHT22;2730;51.512;7.504;2022-09-06T09:40:54;35.40;63.90
5415;DHT22;2730;51.512;7.504;2022-09-06T09:43:23;35.20;64.30
5415;DHT22;2730;51.512;7.504;2022-09-06T09:46:10;35.60;63.50
5415;DHT22;2730;51.512;7.504;2022-09-06T09:48:40;36.40;62.70
5415;DHT22;2730;51.512;7.504;2022-09-06T09:51:18;36.00;61.80
5415;DHT22;2730;51.512;7.504;2022-09-06T09:53:51;36.30;62.60
5415;DHT22;2730;51.512;7.504;2022-09-06T09:56:27;36.40;61.00
5415;DHT22;2730;51.512;7.504;2022-09-06T09:58:55;36.30;60.90
5415;DHT22;2730;51.512;7.504;2022-09-06T10:01:26;36.00;62.20
5415;DHT22;2730;51.512;7.504;2022-09-06T10:04:02;36.00;61.80
5415;DHT22;2730;51.512;7.504;2022-09-06T10:06:30;36.30;61.30
5415;DHT22;2730;51.512;7.504;2022-09-06T10:08:57;36.40;61.20
5415;DHT22;2730;51.512;7.504;2022-09-06T10:11:38;36.20;61.40
5415;DHT22;2730;51.512;7.504;2022-09-06T10:14:12;36.10;61.80
5415;DHT22;2730;51.512;7.504;2022-09-06T10:16:44;36.30;61.40
5415;DHT22;2730;51.512;7.504;2022-09-06T10:22:14;35.40;61.70
5415;DHT22;2730;51.512;7.504;2022-09-06T10:24:55;35.40;61.30
5415;DHT22;2730;51.512;7.504;2022-09-06T10:27:25;35.30;62.10
5415;DHT22;2730;51.512;7.504;2022-09-06T10:29:57;35.10;61.90
5415;DHT22;2730;51.512;7.504;2022-09-06T10:32:36;34.40;62.20
5415;DHT22;2730;51.512;7.504;2022-09-06T10:35:14;34.30;62.50
5415;DHT22;2730;51.512;7.504;2022-09-06T10:37:48;34.60;62.70
5415;DHT22;2730;51.512;7.504;2022-09-06T10:40:28;34.90;62.50
5415;DHT22;2730;51.512;7.504;2022-09-06T10:42:57;35.30;61.90
5415;DHT22;2730;51.512;7.504;2022-09-06T10:48:14;35.90;60.90
5415;DHT22;2730;51.512;7.504;2022-09-06T10:50:48;35.80;60.10
5415;DHT22;2730;51.512;7.504;2022-09-06T10:53:31;35.20;60.80
5415;DHT22;2730;51.512;7.504;2022-09-06T10:56:03;35.30;62.00
5415;DHT22;2730;51.512;7.504;2022-09-06T10:58:35;35.30;60.10
5415;DHT22;2730;51.512;7.504;2022-09-06T11:01:04;34.70;60.80
5415;DHT22;2730;51.512;7.504;2022-09-06T11:03:36;33.80;62.90
5415;DHT22;2730;51.512;7.504;2022-09-06T11:06:09;33.20;62.70
5415;DHT22;2730;51.512;7.504;2022-09-06T11:08:42;32.50;64.40
5415;DHT22;2730;51.512;7.504;2022-09-06T11:11:16;32.10;65.60
5415;DHT22;2730;51.512;7.504;2022-09-06T11:13:45;32.00;64.60
5415;DHT22;2730;51.512;7.504;2022-09-06T11:16:15;31.70;65.90
5415;DHT22;2730;51.512;7.504;2022-09-06T11:18:49;31.30;66.50
5415;DHT22;2730;51.512;7.504;2022-09-06T11:21:38;31.20;67.50
5415;DHT22;2730;51.512;7.504;2022-09-06T11:24:11;31.00;66.70
5415;DHT22;2730;51.512;7.504;2022-09-06T11:26:57;30.90;67.40
5415;DHT22;2730;51.512;7.504;2022-09-06T11:29:27;30.90;67.40
5415;DHT22;2730;51.512;7.504;2022-09-06T11:31:56;30.60;67.40
5415;DHT22;2730;51.512;7.504;2022-09-06T11:34:24;30.40;67.70
5415;DHT22;2730;51.512;7.504;2022-09-06T11:36:55;30.10;68.40
5415;DHT22;2730;51.512;7.504;2022-09-06T11:39:28;29.90;69.00
5415;DHT22;2730;51.512;7.504;2022-09-06T11:41:56;29.80;70.20
5415;DHT22;2730;51.512;7.504;2022-09-06T11:44:52;30.10;69.60
5415;DHT22;2730;51.512;7.504;2022-09-06T11:47:36;30.20;69.10
5415;DHT22;2730;51.512;7.504;2022-09-06T11:53:20;30.00;70.20
5415;DHT22;2730;51.512;7.504;2022-09-06T11:55:48;30.10;69.20
5415;DHT22;2730;51.512;7.504;2022-09-06T11:58:27;29.90;69.00
5415;DHT22;2730;51.512;7.504;2022-09-06T12:01:32;29.80;69.80
5415;DHT22;2730;51.512;7.504;2022-09-06T12:04:01;30.00;70.10
5415;DHT22;2730;51.512;7.504;2022-09-06T12:06:29;30.10;69.90
5415;DHT22;2730;51.512;7.504;2022-09-06T12:08:59;30.10;70.20
5415;DHT22;2730;51.512;7.504;2022-09-06T12:11:33;30.10;69.40
5415;DHT22;2730;51.512;7.504;2022-09-06T12:14:03;30.10;69.60
5415;DHT22;2730;51.512;7.504;2022-09-06T12:19:43;30.20;69.60
5415;DHT22;2730;51.512;7.504;2022-09-06T12:22:51;30.30;70.80
5415;DHT22;2730;51.512;7.504;2022-09-06T12:25:55;30.50;69.90
5415;DHT22;2730;51.512;7.504;2022-09-06T12:28:41;30.40;70.20
5415;DHT22;2730;51.512;7.504;2022-09-06T12:31:33;30.40;70.30
5415;DHT22;2730;51.512;7.504;2022-09-06T12:34:10;30.30;69.90
5415;DHT22;2730;51.512;7.504;2022-09-06T12:36:47;30.10;69.20
5415;DHT22;2730;51.512;7.504;2022-09-06T12:39:15;29.90;70.40
5415;DHT22;2730;51.512;7.504;2022-09-06T12:41:45;30.00;70.30
5415;DHT22;2730;51.512;7.504;2022-09-06T12:44:14;29.90;69.80
5415;DHT22;2730;51.512;7.504;2022-09-06T12:46:44;29.90;70.30
5415;DHT22;2730;51.512;7.504;2022-09-06T12:49:20;30.10;69.90
5415;DHT22;2730;51.512;7.504;2022-09-06T12:51:48;30.20;70.80
5415;DHT22;2730;51.512;7.504;2022-09-06T12:54:20;30.20;70.20
5415;DHT22;2730;51.512;7.504;2022-09-06T12:56:49;30.40;70.10
5415;DHT22;2730;51.512;7.504;2022-09-06T12:59:18;30.50;69.10
5415;DHT22;2730;51.512;7.504;2022-09-06T13:01:56;30.40;68.40
5415;DHT22;2730;51.512;7.504;2022-09-06T13:04:33;30.50;68.90
5415;DHT22;2730;51.512;7.504;2022-09-06T13:07:05;30.50;69.10
5415;DHT22;2730;51.512;7.504;2022-09-06T13:09:34;30.60;68.10
5415;DHT22;2730;51.512;7.504;2022-09-06T13:12:09;30.50;68.50
5415;DHT22;2730;51.512;7.504;2022-09-06T13:14:42;30.40;68.60
5415;DHT22;2730;51.512;7.504;2022-09-06T13:17:21;30.50;69.30
5415;DHT22;2730;51.512;7.504;2022-09-06T13:19:48;30.40;69.40
5415;DHT22;2730;51.512;7.504;2022-09-06T13:22:36;30.30;68.90
5415;DHT22;2730;51.512;7.504;2022-09-06T13:25:05;30.30;69.20
5415;DHT22;2730;51.512;7.504;2022-09-06T13:27:41;30.50;69.20
5415;DHT22;2730;51.512;7.504;2022-09-06T13:30:33;30.50;66.30
5415;DHT22;2730;51.512;7.504;2022-09-06T13:33:01;30.50;67.10
5415;DHT22;2730;51.512;7.504;2022-09-06T13:35:30;30.50;67.90
5415;DHT22;2730;51.512;7.504;2022-09-06T13:38:19;30.50;68.40
5415;DHT22;2730;51.512;7.504;2022-09-06T13:40:48;30.40;68.60
5415;DHT22;2730;51.512;7.504;2022-09-06T13:43:20;30.20;68.60
5415;DHT22;2730;51.512;7.504;2022-09-06T13:45:48;30.20;68.10
5415;DHT22;2730;51.512;7.504;2022-09-06T13:48:15;30.20;67.50
5415;DHT22;2730;51.512;7.504;2022-09-06T13:50:41;30.30;67.40
5415;DHT22;2730;51.512;7.504;2022-09-06T13:53:08;30.40;68.50
5415;DHT22;2730;51.512;7.504;2022-09-06T13:55:35;30.40;67.60
5415;DHT22;2730;51.512;7.504;2022-09-06T13:58:02;30.40;66.80
5415;DHT22;2730;51.512;7.504;2022-09-06T14:00:30;30.40;67.00
5415;DHT22;2730;51.512;7.504;2022-09-06T14:02:57;30.50;66.50
5415;DHT22;2730;51.512;7.504;2022-09-06T14:05:25;30.40;67.30
5415;DHT22;2730;51.512;7.504;2022-09-06T14:07:51;30.40;67.20
5415;DHT22;2730;51.512;7.504;2022-09-06T14:10:18;30.20;68.10
5415;DHT22;2730;51.512;7.504;2022-09-06T14:12:48;30.20;68.10
5415;DHT22;2730;51.512;7.504;2022-09-06T14:15:15;30.20;69.20
5415;DHT22;2730;51.512;7.504;2022-09-06T14:17:43;30.10;69.40
5415;DHT22;2730;51.512;7.504;2022-09-06T14:20:11;30.10;69.20
5415;DHT22;2730;51.512;7.504;2022-09-06T14:22:38;30.10;69.00
5415;DHT22;2730;51.512;7.504;2022-09-06T14:25:05;30.00;68.30
5415;DHT22;2730;51.512;7.504;2022-09-06T14:27:32;29.90;67.60
5415;DHT22;2730;51.512;7.504;2022-09-06T14:30:00;29.90;67.20
5415;DHT22;2730;51.512;7.504;2022-09-06T14:32:27;29.70;67.90
5415;DHT22;2730;51.512;7.504;2022-09-06T14:34:55;29.70;69.20
5415;DHT22;2730;51.512;7.504;2022-09-06T14:37:22;29.70;69.10
5415;DHT22;2730;51.512;7.504;2022-09-06T14:39:49;29.80;69.20
5415;DHT22;2730;51.512;7.504;2022-09-06T14:42:16;29.90;69.40
5415;DHT22;2730;51.512;7.504;2022-09-06T14:44:43;29.90;68.20
5415;DHT22;2730;51.512;7.504;2022-09-06T14:47:09;29.90;68.60
5415;DHT22;2730;51.512;7.504;2022-09-06T14:49:37;29.70;69.00
5415;DHT22;2730;51.512;7.504;2022-09-06T14:52:05;29.70;69.10
5415;DHT22;2730;51.512;7.504;2022-09-06T14:54:32;29.80;68.60
5415;DHT22;2730;51.512;7.504;2022-09-06T14:56:59;29.80;69.30
5415;DHT22;2730;51.512;7.504;2022-09-06T14:59:26;29.70;68.30
5415;DHT22;2730;51.512;7.504;2022-09-06T15:01:52;29.70;68.40
5415;DHT22;2730;51.512;7.504;2022-09-06T15:04:19;29.70;69.20
5415;DHT22;2730;51.512;7.504;2022-09-06T15:06:46;29.70;69.90
5415;DHT22;2730;51.512;7.504;2022-09-06T15:09:15;29.70;70.10
5415;DHT22;2730;51.512;7.504;2022-09-06T15:11:44;29.70;70.00
5415;DHT22;2730;51.512;7.504;2022-09-06T15:14:14;29.60;70.10
5415;DHT22;2730;51.512;7.504;2022-09-06T15:16:41;29.60;70.00
5415;DHT22;2730;51.512;7.504;2022-09-06T15:19:08;29.50;69.30
5415;DHT22;2730;51.512;7.504;2022-09-06T15:21:35;29.40;68.70
5415;DHT22;2730;51.512;7.504;2022-09-06T15:24:03;29.30;69.30
5415;DHT22;2730;51.512;7.504;2022-09-06T15:26:31;29.30;69.50
5415;DHT22;2730;51.512;7.504;2022-09-06T15:28:59;29.30;68.30
5415;DHT22;2730;51.512;7.504;2022-09-06T15:31:27;29.30;68.10
5415;DHT22;2730;51.512;7.504;2022-09-06T15:33:54;29.30;68.40
5415;DHT22;2730;51.512;7.504;2022-09-06T15:36:22;29.30;68.90
5415;DHT22;2730;51.512;7.504;2022-09-06T15:38:50;29.30;69.00
5415;DHT22;2730;51.512;7.504;2022-09-06T15:41:20;29.20;66.50
5415;DHT22;2730;51.512;7.504;2022-09-06T15:43:52;29.20;65.10
5415;DHT22;2730;51.512;7.504;2022-09-06T15:46:42;29.20;66.50
5415;DHT22;2730;51.512;7.504;2022-09-06T15:49:12;29.10;66.60
5415;DHT22;2730;51.512;7.504;2022-09-06T15:51:39;29.10;66.70
5415;DHT22;2730;51.512;7.504;2022-09-06T15:54:07;29.00;67.40
5415;DHT22;2730;51.512;7.504;2022-09-06T15:56:35;29.10;68.30
5415;DHT22;2730;51.512;7.504;2022-09-06T15:59:04;29.00;68.90
5415;DHT22;2730;51.512;7.504;2022-09-06T16:01:32;28.90;69.40
5415;DHT22;2730;51.512;7.504;2022-09-06T16:04:03;28.80;69.30
5415;DHT22;2730;51.512;7.504;2022-09-06T16:06:33;28.80;68.90
5415;DHT22;2730;51.512;7.504;2022-09-06T16:09:02;28.70;69.00
5415;DHT22;2730;51.512;7.504;2022-09-06T16:11:30;28.70;69.30
5415;DHT22;2730;51.512;7.504;2022-09-06T16:14:05;28.70;69.40
5415;DHT22;2730;51.512;7.504;2022-09-06T16:16:33;28.60;69.70
5415;DHT22;2730;51.512;7.504;2022-09-06T16:19:00;28.60;69.50
5415;DHT22;2730;51.512;7.504;2022-09-06T16:21:28;28.60;68.60
5415;DHT22;2730;51.512;7.504;2022-09-06T16:23:57;28.60;67.60
5415;DHT22;2730;51.512;7.504;2022-09-06T16:26:26;28.50;67.90
5415;DHT22;2730;51.512;7.504;2022-09-06T16:28:53;28.50;68.30
5415;DHT22;2730;51.512;7.504;2022-09-06T16:31:22;28.50;68.40
5415;DHT22;2730;51.512;7.504;2022-09-06T16:33:49;28.50;69.10
5415;DHT22;2730;51.512;7.504;2022-09-06T16:36:19;28.50;69.10
5415;DHT22;2730;51.512;7.504;2022-09-06T16:38:46;28.50;69.20
5415;DHT22;2730;51.512;7.504;2022-09-06T16:41:15;28.40;69.40
5415;DHT22;2730;51.512;7.504;2022-09-06T16:43:44;28.40;69.20
5415;DHT22;2730;51.512;7.504;2022-09-06T16:46:12;28.40;68.80
5415;DHT22;2730;51.512;7.504;2022-09-06T16:48:40;28.30;69.40
5415;DHT22;2730;51.512;7.504;2022-09-06T16:51:10;28.20;70.00
5415;DHT22;2730;51.512;7.504;2022-09-06T16:53:38;28.20;69.80
5415;DHT22;2730;51.512;7.504;2022-09-06T16:56:06;28.20;69.30
5415;DHT22;2730;51.512;7.504;2022-09-06T16:58:33;28.20;69.40
5415;DHT22;2730;51.512;7.504;2022-09-06T17:01:00;28.10;69.30
5415;DHT22;2730;51.512;7.504;2022-09-06T17:03:27;28.10;69.30
5415;DHT22;2730;51.512;7.504;2022-09-06T17:05:56;27.90;69.20
5415;DHT22;2730;51.512;7.504;2022-09-06T17:08:23;27.80;70.70
5415;DHT22;2730;51.512;7.504;2022-09-06T17:10:50;27.70;71.30
5415;DHT22;2730;51.512;7.504;2022-09-06T17:13:18;27.60;71.40
5415;DHT22;2730;51.512;7.504;2022-09-06T17:15:51;27.60;71.70
5415;DHT22;2730;51.512;7.504;2022-09-06T17:18:36;27.40;72.30
5415;DHT22;2730;51.512;7.504;2022-09-06T17:21:04;27.30;73.20
5415;DHT22;2730;51.512;7.504;2022-09-06T17:23:32;27.20;74.40
5415;DHT22;2730;51.512;7.504;2022-09-06T17:25:59;27.00;74.80
5415;DHT22;2730;51.512;7.504;2022-09-06T17:28:26;26.80;75.20
5415;DHT22;2730;51.512;7.504;2022-09-06T17:30:53;26.70;75.70
5415;DHT22;2730;51.512;7.504;2022-09-06T17:33:20;26.60;76.30
5415;DHT22;2730;51.512;7.504;2022-09-06T17:35:49;26.50;76.90
5415;DHT22;2730;51.512;7.504;2022-09-06T17:38:17;26.30;78.00
5415;DHT22;2730;51.512;7.504;2022-09-06T17:40:44;26.20;79.60
5415;DHT22;2730;51.512;7.504;2022-09-06T17:43:11;26.10;80.20
5415;DHT22;2730;51.512;7.504;2022-09-06T17:45:40;26.00;80.40
5415;DHT22;2730;51.512;7.504;2022-09-06T17:48:08;25.90;81.00
5415;DHT22;2730;51.512;7.504;2022-09-06T17:50:35;25.90;81.00
5415;DHT22;2730;51.512;7.504;2022-09-06T17:53:02;25.80;82.10
5415;DHT22;2730;51.512;7.504;2022-09-06T17:55:30;25.70;82.20
5415;DHT22;2730;51.512;7.504;2022-09-06T17:57:57;25.60;82.30
5415;DHT22;2730;51.512;7.504;2022-09-06T18:00:24;25.70;80.20
5415;DHT22;2730;51.512;7.504;2022-09-06T18:02:51;25.70;81.50
5415;DHT22;2730;51.512;7.504;2022-09-06T18:05:19;25.60;83.00
5415;DHT22;2730;51.512;7.504;2022-09-06T18:07:46;25.50;84.00
5415;DHT22;2730;51.512;7.504;2022-09-06T18:10:13;25.40;84.20
5415;DHT22;2730;51.512;7.504;2022-09-06T18:12:43;25.30;85.10
5415;DHT22;2730;51.512;7.504;2022-09-06T18:15:11;25.20;85.80
5415;DHT22;2730;51.512;7.504;2022-09-06T18:17:38;25.00;85.90
5415;DHT22;2730;51.512;7.504;2022-09-06T18:20:06;24.90;86.90
5415;DHT22;2730;51.512;7.504;2022-09-06T18:22:33;24.80;87.40
5415;DHT22;2730;51.512;7.504;2022-09-06T18:25:03;24.70;89.00
5415;DHT22;2730;51.512;7.504;2022-09-06T18:27:31;24.60;89.40
5415;DHT22;2730;51.512;7.504;2022-09-06T18:30:00;24.50;89.80
5415;DHT22;2730;51.512;7.504;2022-09-06T18:32:27;24.50;90.30
5415;DHT22;2730;51.512;7.504;2022-09-06T18:34:53;24.40;90.60
5415;DHT22;2730;51.512;7.504;2022-09-06T18:37:21;24.30;90.30
5415;DHT22;2730;51.512;7.504;2022-09-06T18:39:48;24.30;90.80
5415;DHT22;2730;51.512;7.504;2022-09-06T18:42:15;24.20;90.70
5415;DHT22;2730;51.512;7.504;2022-09-06T18:44:41;24.10;91.30
5415;DHT22;2730;51.512;7.504;2022-09-06T18:47:10;24.00;91.70
5415;DHT22;2730;51.512;7.504;2022-09-06T18:49:38;24.00;92.10
5415;DHT22;2730;51.512;7.504;2022-09-06T18:52:05;24.00;92.10
5415;DHT22;2730;51.512;7.504;2022-09-06T18:54:32;23.90;92.50
5415;DHT22;2730;51.512;7.504;2022-09-06T18:57:00;23.90;92.90
5415;DHT22;2730;51.512;7.504;2022-09-06T18:59:27;23.90;93.00
5415;DHT22;2730;51.512;7.504;2022-09-06T19:01:54;23.80;93.20
5415;DHT22;2730;51.512;7.504;2022-09-06T19:04:23;23.70;93.60
5415;DHT22;2730;51.512;7.504;2022-09-06T19:06:50;23.70;93.40
5415;DHT22;2730;51.512;7.504;2022-09-06T19:09:17;23.60;93.90
5415;DHT22;2730;51.512;7.504;2022-09-06T19:11:44;23.50;94.10
5415;DHT22;2730;51.512;7.504;2022-09-06T19:14:16;23.40;94.50
5415;DHT22;2730;51.512;7.504;2022-09-06T19:16:42;23.40;94.90
5415;DHT22;2730;51.512;7.504;2022-09-06T19:19:11;23.40;95.50
5415;DHT22;2730;51.512;7.504;2022-09-06T19:21:39;23.30;95.90
5415;DHT22;2730;51.512;7.504;2022-09-06T19:24:07;23.30;96.20
5415;DHT22;2730;51.512;7.504;2022-09-06T19:26:37;23.20;96.70
5415;DHT22;2730;51.512;7.504;2022-09-06T19:29:07;23.20;96.90
5415;DHT22;2730;51.512;7.504;2022-09-06T19:31:35;23.20;97.20
5415;DHT22;2730;51.512;7.504;2022-09-06T19:34:02;23.10;97.80
5415;DHT22;2730;51.512;7.504;2022-09-06T19:36:30;23.10;98.10
5415;DHT22;2730;51.512;7.504;2022-09-06T19:39:00;23.00;98.30
5415;DHT22;2730;51.512;7.504;2022-09-06T19:41:28;23.00;98.40
5415;DHT22;2730;51.512;7.504;2022-09-06T19:43:56;23.00;98.70
5415;DHT22;2730;51.512;7.504;2022-09-06T19:46:24;23.00;98.80
5415;DHT22;2730;51.512;7.504;2022-09-06T19:48:53;22.90;99.20
5415;DHT22;2730;51.512;7.504;2022-09-06T19:51:21;22.80;99.60
5415;DHT22;2730;51.512;7.504;2022-09-06T19:53:49;22.80;99.60
5415;DHT22;2730;51.512;7.504;2022-09-06T19:56:20;22.80;99.60
5415;DHT22;2730;51.512;7.504;2022-09-06T19:58:52;22.70;99.30
5415;DHT22;2730;51.512;7.504;2022-09-06T20:01:20;22.70;99.50
5415;DHT22;2730;51.512;7.504;2022-09-06T20:03:47;22.70;99.50
5415;DHT22;2730;51.512;7.504;2022-09-06T20:06:14;22.70;99.50
5415;DHT22;2730;51.512;7.504;2022-09-06T20:08:41;22.70;99.60
5415;DHT22;2730;51.512;7.504;2022-09-06T20:11:09;22.60;99.20
5415;DHT22;2730;51.512;7.504;2022-09-06T20:13:38;22.50;99.50
5415;DHT22;2730;51.512;7.504;2022-09-06T20:16:08;22.50;99.90
5415;DHT22;2730;51.512;7.504;2022-09-06T20:18:37;22.50;99.60
5415;DHT22;2730;51.512;7.504;2022-09-06T20:21:05;22.70;98.20
5415;DHT22;2730;51.512;7.504;2022-09-06T20:23:33;22.80;97.70
5415;DHT22;2730;51.512;7.504;2022-09-06T20:26:02;22.90;97.30
5415;DHT22;2730;51.512;7.504;2022-09-06T20:28:30;23.10;97.10
5415;DHT22;2730;51.512;7.504;2022-09-06T20:31:03;23.10;97.50
5415;DHT22;2730;51.512;7.504;2022-09-06T20:33:31;23.10;96.50
5415;DHT22;2730;51.512;7.504;2022-09-06T20:35:59;23.10;96.50
5415;DHT22;2730;51.512;7.504;2022-09-06T20:38:28;23.10;96.50
5415;DHT22;2730;51.512;7.504;2022-09-06T20:41:00;23.10;96.10
5415;DHT22;2730;51.512;7.504;2022-09-06T20:43:27;23.20;96.10
5415;DHT22;2730;51.512;7.504;2022-09-06T20:45:56;23.10;96.40
5415;DHT22;2730;51.512;7.504;2022-09-06T20:48:25;23.00;96.20
5415;DHT22;2730;51.512;7.504;2022-09-06T20:50:56;22.90;96.40
5415;DHT22;2730;51.512;7.504;2022-09-06T20:53:23;22.90;96.30
5415;DHT22;2730;51.512;7.504;2022-09-06T20:55:58;22.90;96.50
5415;DHT22;2730;51.512;7.504;2022-09-06T20:58:25;22.90;96.80
5415;DHT22;2730;51.512;7.504;2022-09-06T21:00:53;22.90;96.70
5415;DHT22;2730;51.512;7.504;2022-09-06T21:03:20;22.90;96.80
5415;DHT22;2730;51.512;7.504;2022-09-06T21:05:48;22.90;96.80
5415;DHT22;2730;51.512;7.504;2022-09-06T21:08:15;22.80;96.50
5415;DHT22;2730;51.512;7.504;2022-09-06T21:10:42;22.80;96.60
5415;DHT22;2730;51.512;7.504;2022-09-06T21:13:10;22.80;96.80
5415;DHT22;2730;51.512;7.504;2022-09-06T21:15:38;22.80;96.80
5415;DHT22;2730;51.512;7.504;2022-09-06T21:18:06;22.80;96.60
5415;DHT22;2730;51.512;7.504;2022-09-06T21:20:33;22.80;96.60
5415;DHT22;2730;51.512;7.504;2022-09-06T21:23:02;22.80;96.80
5415;DHT22;2730;51.512;7.504;2022-09-06T21:25:29;22.80;96.30
5415;DHT22;2730;51.512;7.504;2022-09-06T21:27:56;22.80;96.40
5415;DHT22;2730;51.512;7.504;2022-09-06T21:30:22;22.80;96.60
5415;DHT22;2730;51.512;7.504;2022-09-06T21:32:52;22.70;96.40